Check out our new BloomSky Weather System.

Active alerts

Houston, TX
  Details for Houston, TX Heat Advisory  +1 additional alert
Galveston, TX
  Details for Galveston, TX Air Quality Alert


Thunder radar  blitzortung!


Rain radar more information rain snow radar


Visit our other weather sites:

Template documentation
and downloads

And another site



Weather Underground History page Text

Daily Summary for September 21, 2017 Units:  English    Metric   Both
« Previous Day
Next Day »
Daily Weekly Monthly Yearly Custom
  High: Low: Average:
Temperature: TemperatureF °F 75.7 °F 79.3 °F
Dew Point: DewpointF °F 74.1 °F 76.6 °F
Humidity: Humidity % 79 % 91 %
Wind Speed: WindSpeedMPH mph 0.0 mph 1.6 mph
Wind Gust: WindSpeedGustMPH mph - -
Wind:- - SE
Pressure: PressureIn in 29.89 in -
Precipitation: 0.02 in    
Historical Graphs
 
 
Tabular Data for September 21, 2017
Time Temperature Dew Point Pressure Wind Wind Speed Wind Gust Humidity Rainfall Rate (Hourly)
TemperatureF °F DewpointF °F PressureIn in Calm     Humidity % HourlyPrecipIn in
00:01 81.1 °F 78.3 °F 29.93 in South 2.0 mph 6.0 mph 91 % 0.00 in
00:06 81.0 °F 78.1 °F 29.94 in SSE 2.0 mph 6.0 mph 91 % 0.00 in
00:11 80.8 °F 77.9 °F 29.93 in South 3.0 mph 4.0 mph 91 % 0.00 in
00:16 80.8 °F 78.3 °F 29.93 in ESE 1.0 mph 5.0 mph 92 % 0.00 in
00:21 80.8 °F 78.3 °F 29.93 in ESE 5.0 mph 5.0 mph 92 % 0.00 in
00:26 80.6 °F 78.1 °F 29.94 in SE 1.0 mph 5.0 mph 92 % 0.00 in
00:31 80.6 °F 78.1 °F 29.93 in ESE 2.0 mph 5.0 mph 92 % 0.00 in
00:36 80.4 °F 77.9 °F 29.93 in SE 1.0 mph 5.0 mph 92 % 0.00 in
00:41 80.4 °F 77.9 °F 29.93 in SE 2.0 mph 4.0 mph 92 % 0.00 in
00:46 80.4 °F 78.3 °F 29.94 in Calm   3.0 mph 93 % 0.00 in
00:51 80.4 °F 78.3 °F 29.94 in East 3.0 mph 4.0 mph 93 % 0.00 in
00:56 80.4 °F 78.3 °F 29.94 in ESE 1.0 mph 4.0 mph 93 % 0.00 in
01:01 80.2 °F 78.1 °F 29.94 in ESE 2.0 mph 4.0 mph 93 % 0.00 in
01:06 80.2 °F 78.1 °F 29.94 in SSE 2.0 mph 4.0 mph 93 % 0.00 in
01:11 80.2 °F 78.1 °F 29.94 in East 4.0 mph 5.0 mph 93 % 0.00 in
01:16 80.2 °F 78.1 °F 29.93 in SE 2.0 mph 5.0 mph 93 % 0.00 in
01:21 80.2 °F 78.1 °F 29.94 in Calm   5.0 mph 93 % 0.00 in
01:26 80.2 °F 78.1 °F 29.93 in ESE 2.0 mph 5.0 mph 93 % 0.00 in
01:31 80.2 °F 78.1 °F 29.93 in SE 2.0 mph 5.0 mph 93 % 0.00 in
01:36 80.2 °F 78.1 °F 29.94 in SSE 3.0 mph 5.0 mph 93 % 0.00 in
01:41 80.2 °F 78.4 °F 29.93 in SSE 1.0 mph 6.0 mph 94 % 0.00 in
01:46 80.2 °F 78.4 °F 29.94 in ESE 1.0 mph 6.0 mph 94 % 0.00 in
01:56 80.1 °F 78.3 °F 29.93 in ENE 2.0 mph 6.0 mph 94 % 0.00 in
02:01 80.1 °F 78.3 °F 29.93 in ESE 2.0 mph 5.0 mph 94 % 0.00 in
02:06 80.1 °F 78.3 °F 29.93 in ESE 2.0 mph 7.0 mph 94 % 0.00 in
02:11 80.1 °F 78.3 °F 29.93 in SE 3.0 mph 7.0 mph 94 % 0.00 in
02:16 79.9 °F 78.1 °F 29.93 in ESE 2.0 mph 7.0 mph 94 % 0.00 in
02:21 79.9 °F 78.1 °F 29.93 in East 6.0 mph 6.0 mph 94 % 0.00 in
02:26 79.9 °F 78.1 °F 29.92 in ESE 2.0 mph 6.0 mph 94 % 0.00 in
02:31 79.9 °F 78.3 °F 29.92 in SE 2.0 mph 6.0 mph 95 % 0.00 in
02:36 79.7 °F 78.1 °F 29.92 in ESE 2.0 mph 6.0 mph 95 % 0.00 in
02:41 79.7 °F 78.1 °F 29.92 in ESE 4.0 mph 6.0 mph 95 % 0.00 in
02:46 79.7 °F 78.1 °F 29.92 in SE 3.0 mph 6.0 mph 95 % 0.00 in
02:51 79.7 °F 78.1 °F 29.91 in East 2.0 mph 6.0 mph 95 % 0.00 in
02:57 79.7 °F 78.1 °F 29.91 in ESE 4.0 mph 6.0 mph 95 % 0.00 in
03:02 79.7 °F 78.1 °F 29.91 in ESE 2.0 mph 6.0 mph 95 % 0.00 in
03:07 79.7 °F 78.1 °F 29.91 in ESE 2.0 mph 6.0 mph 95 % 0.00 in
03:12 79.7 °F 78.1 °F 29.91 in ESE 3.0 mph 5.0 mph 95 % 0.00 in
03:17 79.7 °F 78.1 °F 29.91 in SSE 3.0 mph 5.0 mph 95 % 0.00 in
03:22 79.5 °F 77.9 °F 29.91 in SE 2.0 mph 5.0 mph 95 % 0.00 in
03:27 79.5 °F 77.9 °F 29.91 in ESE 2.0 mph 5.0 mph 95 % 0.00 in
03:32 79.5 °F 77.9 °F 29.91 in SE 2.0 mph 5.0 mph 95 % 0.00 in
03:37 79.5 °F 78.3 °F 29.91 in SSE 2.0 mph 5.0 mph 96 % 0.00 in
03:42 79.5 °F 78.3 °F 29.91 in SE 2.0 mph 4.0 mph 96 % 0.00 in
03:47 79.5 °F 78.3 °F 29.91 in SE 2.0 mph 4.0 mph 96 % 0.00 in
03:52 79.5 °F 78.3 °F 29.91 in SE 2.0 mph 4.0 mph 96 % 0.00 in
03:57 79.3 °F 78.1 °F 29.91 in SE 2.0 mph 4.0 mph 96 % 0.00 in
04:02 79.3 °F 78.1 °F 29.91 in SSE 1.0 mph 4.0 mph 96 % 0.00 in
04:07 79.3 °F 78.1 °F 29.91 in SSE 2.0 mph 4.0 mph 96 % 0.00 in
04:12 79.3 °F 78.1 °F 29.91 in SE 2.0 mph 4.0 mph 96 % 0.00 in
04:17 79.3 °F 78.1 °F 29.91 in Calm   4.0 mph 96 % 0.00 in
04:22 79.3 °F 78.1 °F 29.91 in SE 2.0 mph 4.0 mph 96 % 0.00 in
04:27 79.3 °F 78.1 °F 29.91 in South 2.0 mph 4.0 mph 96 % 0.00 in
04:32 79.3 °F 78.1 °F 29.90 in SSE 1.0 mph 4.0 mph 96 % 0.00 in
04:37 79.3 °F 78.1 °F 29.90 in SE 2.0 mph 4.0 mph 96 % 0.00 in
04:42 79.3 °F 78.1 °F 29.90 in ESE 2.0 mph 4.0 mph 96 % 0.00 in
04:47 79.2 °F 77.9 °F 29.90 in SE 1.0 mph 3.0 mph 96 % 0.00 in
04:52 79.2 °F 77.9 °F 29.90 in SE 1.0 mph 3.0 mph 96 % 0.00 in
04:57 79.2 °F 77.9 °F 29.90 in ESE 1.0 mph 3.0 mph 96 % 0.00 in
05:02 79.2 °F 77.9 °F 29.91 in East 2.0 mph 3.0 mph 96 % 0.00 in
05:07 79.2 °F 77.9 °F 29.91 in ESE 3.0 mph 3.0 mph 96 % 0.00 in
05:12 79.2 °F 77.9 °F 29.91 in ESE 2.0 mph 5.0 mph 96 % 0.00 in
05:17 79.2 °F 77.9 °F 29.91 in Calm   5.0 mph 96 % 0.00 in
05:22 79.2 °F 77.9 °F 29.91 in Calm   5.0 mph 96 % 0.00 in
05:27 79.2 °F 77.9 °F 29.91 in SE 1.0 mph 4.0 mph 96 % 0.00 in
05:32 79.2 °F 77.9 °F 29.91 in SSE 1.0 mph 4.0 mph 96 % 0.00 in
05:37 79.2 °F 77.9 °F 29.91 in SSW 2.0 mph 4.0 mph 96 % 0.00 in
05:42 79.0 °F 77.7 °F 29.91 in SE 2.0 mph 4.0 mph 96 % 0.00 in
05:47 79.0 °F 77.7 °F 29.91 in Calm   3.0 mph 96 % 0.00 in
05:52 79.0 °F 77.7 °F 29.92 in Calm   3.0 mph 96 % 0.00 in
05:57 79.0 °F 77.7 °F 29.92 in South 1.0 mph 3.0 mph 96 % 0.00 in
06:02 78.8 °F 77.5 °F 29.92 in Calm   1.0 mph 96 % 0.00 in
06:07 78.6 °F 77.7 °F 29.92 in SSE 1.0 mph 2.0 mph 97 % 0.00 in
06:12 78.6 °F 77.7 °F 29.92 in SE 1.0 mph 2.0 mph 97 % 0.00 in
06:17 78.6 °F 77.7 °F 29.92 in Calm   2.0 mph 97 % 0.00 in
06:22 78.4 °F 77.5 °F 29.92 in Calm   2.0 mph 97 % 0.00 in
06:27 78.4 °F 77.5 °F 29.92 in Calm   1.0 mph 97 % 0.00 in
06:32 78.4 °F 77.5 °F 29.93 in Calm   1.0 mph 97 % 0.00 in
06:37 78.4 °F 77.5 °F 29.92 in Calm   1.0 mph 97 % 0.00 in
06:42 78.4 °F 77.5 °F 29.93 in Calm     97 % 0.00 in
06:47 78.3 °F 77.4 °F 29.93 in Calm     97 % 0.00 in
06:52 78.3 °F 77.4 °F 29.93 in Calm     97 % 0.00 in
06:57 78.3 °F 77.4 °F 29.93 in Calm     97 % 0.00 in
07:02 78.3 °F 77.4 °F 29.93 in Calm   1.0 mph 97 % 0.00 in
07:07 78.3 °F 77.7 °F 29.93 in Calm   1.0 mph 98 % 0.00 in
07:12 78.3 °F 77.7 °F 29.93 in Calm   1.0 mph 98 % 0.00 in
07:17 78.3 °F 77.7 °F 29.94 in Calm   1.0 mph 98 % 0.00 in
07:22 78.3 °F 77.7 °F 29.94 in Calm   1.0 mph 98 % 0.00 in
07:27 78.3 °F 77.7 °F 29.94 in Calm   2.0 mph 98 % 0.00 in
07:32 78.4 °F 77.9 °F 29.94 in Calm   2.0 mph 98 % 0.00 in
07:37 78.4 °F 77.9 °F 29.94 in Calm   2.0 mph 98 % 0.00 in
07:42 78.4 °F 77.9 °F 29.94 in Calm   1.0 mph 98 % 0.00 in
07:47 78.6 °F 78.1 °F 29.94 in Calm   1.0 mph 98 % 0.00 in
07:52 79.0 °F 78.4 °F 29.94 in Calm   1.0 mph 98 % 0.00 in
07:57 79.0 °F 78.4 °F 29.95 in Calm   1.0 mph 98 % 0.00 in
08:02 79.2 °F 78.3 °F 29.95 in Calm   1.0 mph 97 % 0.00 in
08:07 79.3 °F 78.4 °F 29.95 in Calm   1.0 mph 97 % 0.00 in
08:12 79.7 °F 78.8 °F 29.95 in Calm   1.0 mph 97 % 0.00 in
08:17 80.2 °F 79.3 °F 29.95 in Calm   2.0 mph 97 % 0.00 in
08:22 80.6 °F 79.3 °F 29.95 in Calm   2.0 mph 96 % 0.00 in
08:27 80.8 °F 79.2 °F 29.96 in Calm   2.0 mph 95 % 0.00 in
08:32 81.0 °F 79.3 °F 29.95 in Calm   2.0 mph 95 % 0.00 in
08:37 81.3 °F 79.7 °F 29.95 in Calm   1.0 mph 95 % 0.00 in
08:42 81.7 °F 79.5 °F 29.95 in East 1.0 mph 1.0 mph 93 % 0.00 in
08:47 81.7 °F 79.2 °F 29.96 in SE 1.0 mph 2.0 mph 92 % 0.00 in
08:52 81.3 °F 78.8 °F 29.96 in Calm   2.0 mph 92 % 0.00 in
08:57 81.3 °F 79.2 °F 29.96 in ENE 1.0 mph 2.0 mph 93 % 0.00 in
09:02 81.1 °F 79.0 °F 29.96 in East 1.0 mph 3.0 mph 93 % 0.00 in
09:07 81.1 °F 79.0 °F 29.96 in SSE 2.0 mph 3.0 mph 93 % 0.00 in
09:12 81.3 °F 79.2 °F 29.96 in SE 2.0 mph 4.0 mph 93 % 0.00 in
09:17 81.9 °F 79.7 °F 29.96 in SE 4.0 mph 5.0 mph 93 % 0.00 in
09:22 82.2 °F 79.7 °F 29.96 in East 1.0 mph 5.0 mph 92 % 0.00 in
09:32 82.6 °F 79.3 °F 29.96 in SE 3.0 mph 4.0 mph 90 % 0.00 in
09:37 82.6 °F 79.3 °F 29.96 in SSE 4.0 mph 6.0 mph 90 % 0.00 in
09:42 82.2 °F 79.0 °F 29.96 in SE 1.0 mph 6.0 mph 90 % 0.00 in
09:47 82.4 °F 79.2 °F 29.96 in South 3.0 mph 6.0 mph 90 % 0.00 in
09:52 82.9 °F 80.1 °F 29.96 in SSE 2.0 mph 6.0 mph 91 % 0.00 in
09:57 83.8 °F 79.9 °F 29.96 in SSE 2.0 mph 6.0 mph 88 % 0.00 in
10:02 84.6 °F 80.6 °F 29.96 in SE 2.0 mph 5.0 mph 88 % 0.00 in
10:07 85.1 °F 80.1 °F 29.96 in South 3.0 mph 5.0 mph 85 % 0.00 in
10:12 85.5 °F 80.4 °F 29.96 in SSE 5.0 mph 6.0 mph 85 % 0.00 in
10:17 85.1 °F 79.7 °F 29.96 in ENE 3.0 mph 7.0 mph 84 % 0.00 in
10:22 84.9 °F 79.9 °F 29.97 in SE 1.0 mph 7.0 mph 85 % 0.00 in
10:27 85.5 °F 80.1 °F 29.97 in East 5.0 mph 7.0 mph 84 % 0.00 in
10:32 85.1 °F 80.1 °F 29.96 in NE 2.0 mph 6.0 mph 85 % 0.00 in
10:37 84.9 °F 79.9 °F 29.96 in SSE 2.0 mph 6.0 mph 85 % 0.00 in
10:42 84.7 °F 79.3 °F 29.96 in ESE 3.0 mph 8.0 mph 84 % 0.00 in
10:47 84.7 °F 79.3 °F 29.97 in ESE 4.0 mph 8.0 mph 84 % 0.00 in
10:52 84.4 °F 79.3 °F 29.96 in SE 4.0 mph 8.0 mph 85 % 0.00 in
10:57 84.4 °F 79.3 °F 29.96 in SSE 3.0 mph 8.0 mph 85 % 0.00 in
11:02 84.9 °F 79.9 °F 29.96 in Calm   8.0 mph 85 % 0.00 in
11:07 85.5 °F 80.4 °F 29.96 in SE 3.0 mph 5.0 mph 85 % 0.00 in
11:12 86.2 °F 80.4 °F 29.96 in SSE 1.0 mph 8.0 mph 83 % 0.00 in
11:17 86.9 °F 81.1 °F 29.96 in SE 3.0 mph 8.0 mph 83 % 0.00 in
11:22 87.1 °F 80.6 °F 29.96 in ENE 5.0 mph 8.0 mph 81 % 0.00 in
11:27 87.3 °F 80.8 °F 29.96 in ENE 4.0 mph 8.0 mph 81 % 0.00 in
11:32 87.1 °F 81.3 °F 29.96 in ENE 2.0 mph 8.0 mph 83 % 0.00 in
11:37 87.3 °F 80.8 °F 29.96 in NNW 3.0 mph 9.0 mph 81 % 0.00 in
11:42 87.4 °F 81.3 °F 29.96 in NE 4.0 mph 9.0 mph 82 % 0.00 in
11:47 87.4 °F 81.0 °F 29.95 in NW 3.0 mph 9.0 mph 81 % 0.00 in
11:52 86.5 °F 80.4 °F 29.96 in NNE 2.0 mph 8.0 mph 82 % 0.00 in
11:57 86.0 °F 80.2 °F 29.95 in ESE 3.0 mph 8.0 mph 83 % 0.00 in
12:02 86.2 °F 80.8 °F 29.95 in ENE 2.0 mph 8.0 mph 84 % 0.00 in
12:07 86.5 °F 80.1 °F 29.95 in ENE 3.0 mph 11.0 mph 81 % 0.00 in
12:12 86.4 °F 79.9 °F 29.94 in NE 5.0 mph 11.0 mph 81 % 0.00 in
12:17 86.5 °F 79.7 °F 29.94 in ENE 3.0 mph 11.0 mph 80 % 0.00 in
12:22 86.5 °F 79.7 °F 29.95 in North 2.0 mph 10.0 mph 80 % 0.00 in
12:27 86.4 °F 79.0 °F 29.96 in SE 2.0 mph 9.0 mph 79 % 0.00 in
12:32 85.8 °F 79.0 °F 29.95 in East 4.0 mph 9.0 mph 80 % 0.00 in
12:37 85.5 °F 79.3 °F 29.95 in ESE 2.0 mph 9.0 mph 82 % 0.00 in
12:42 85.1 °F 78.6 °F 29.96 in ENE 6.0 mph 7.0 mph 81 % 0.00 in
12:44 84.9 °F 78.4 °F 29.95 in ESE 3.0 mph 7.0 mph 81 % 0.00 in
12:49 84.6 °F 78.1 °F 29.95 in ENE 3.0 mph 8.0 mph 81 % 0.00 in
12:54 84.2 °F 77.7 °F 29.95 in ENE 8.0 mph 9.0 mph 81 % 0.00 in
12:59 83.8 °F 77.4 °F 29.96 in SE 4.0 mph 9.0 mph 81 % 0.00 in
13:04 82.9 °F 76.1 °F 29.96 in South 7.0 mph 12.0 mph 80 % 0.00 in
13:09 81.7 °F 76.3 °F 29.98 in ESE 6.0 mph 13.0 mph 84 % 0.00 in
13:14 81.0 °F 75.7 °F 29.98 in SSW 4.0 mph 13.0 mph 84 % 0.00 in
13:19 80.4 °F 75.6 °F 29.99 in SSW 2.0 mph 13.0 mph 85 % 0.00 in
13:24 80.1 °F 75.9 °F 29.98 in SSW 7.0 mph 12.0 mph 87 % 0.00 in
13:29 79.3 °F 75.7 °F 29.98 in South 5.0 mph 12.0 mph 89 % 0.00 in
13:34 78.8 °F 75.6 °F 29.98 in SSE 2.0 mph 9.0 mph 90 % 0.00 in
13:39 78.3 °F 75.4 °F 29.98 in South 2.0 mph 8.0 mph 91 % 0.00 in
13:44 77.7 °F 75.2 °F 29.97 in South 7.0 mph 8.0 mph 92 % 0.01 in
13:49 77.4 °F 74.8 °F 29.96 in SE 2.0 mph 7.0 mph 92 % 0.01 in
13:54 77.0 °F 74.5 °F 29.95 in SSE 1.0 mph 7.0 mph 92 % 0.01 in
13:59 76.8 °F 74.7 °F 29.95 in Calm   7.0 mph 93 % 0.01 in
14:04 76.8 °F 74.7 °F 29.95 in ESE 3.0 mph 6.0 mph 93 % 0.01 in
14:09 76.6 °F 74.5 °F 29.95 in East 3.0 mph 5.0 mph 93 % 0.02 in
14:14 76.5 °F 74.3 °F 29.94 in ESE 2.0 mph 6.0 mph 93 % 0.02 in
14:19 76.5 °F 74.7 °F 29.94 in East 2.0 mph 7.0 mph 94 % 0.02 in
14:24 76.5 °F 74.7 °F 29.94 in SE 3.0 mph 7.0 mph 94 % 0.02 in
14:29 76.5 °F 74.7 °F 29.94 in SE 3.0 mph 7.0 mph 94 % 0.02 in
14:34 76.5 °F 74.8 °F 29.93 in SSE 1.0 mph 6.0 mph 95 % 0.02 in
14:39 76.3 °F 74.5 °F 29.93 in SSW 1.0 mph 6.0 mph 94 % 0.02 in
14:44 76.5 °F 74.7 °F 29.94 in ESE 2.0 mph 6.0 mph 94 % 0.01 in
14:49 76.5 °F 74.7 °F 29.94 in South 4.0 mph 6.0 mph 94 % 0.01 in
14:54 76.6 °F 74.8 °F 29.94 in SE 2.0 mph 6.0 mph 94 % 0.01 in
14:59 76.8 °F 75.0 °F 29.93 in SSE 5.0 mph 5.0 mph 94 % 0.01 in
15:04 77.0 °F 74.8 °F 29.93 in SE 3.0 mph 5.0 mph 93 % 0.00 in
15:09 77.2 °F 74.7 °F 29.93 in SE 2.0 mph 8.0 mph 92 % 0.00 in
15:14 77.4 °F 74.5 °F 29.93 in SE 1.0 mph 8.0 mph 91 % 0.00 in
15:19 77.5 °F 74.7 °F 29.93 in South 3.0 mph 8.0 mph 91 % 0.00 in
15:24 77.7 °F 74.5 °F 29.94 in SSE 3.0 mph 7.0 mph 90 % 0.00 in
15:29 77.9 °F 74.7 °F 29.93 in SE 5.0 mph 5.0 mph 90 % 0.00 in
15:34 77.9 °F 74.7 °F 29.93 in ESE 3.0 mph 7.0 mph 90 % 0.00 in
15:40 77.7 °F 74.5 °F 29.93 in SE 3.0 mph 7.0 mph 90 % 0.00 in
15:45 77.7 °F 74.5 °F 29.93 in SE 5.0 mph 9.0 mph 90 % 0.00 in
15:50 77.7 °F 74.5 °F 29.93 in SSE 4.0 mph 9.0 mph 90 % 0.00 in
15:55 77.7 °F 74.5 °F 29.92 in SSW 2.0 mph 9.0 mph 90 % 0.00 in
16:00 77.7 °F 74.5 °F 29.93 in ESE 3.0 mph 9.0 mph 90 % 0.00 in
16:05 77.7 °F 74.8 °F 29.92 in SSE 2.0 mph 7.0 mph 91 % 0.00 in
16:10 77.9 °F 75.0 °F 29.92 in SSW 2.0 mph 6.0 mph 91 % 0.00 in
16:15 77.9 °F 74.7 °F 29.92 in ESE 3.0 mph 6.0 mph 90 % 0.00 in
16:20 78.1 °F 74.8 °F 29.92 in East 2.0 mph 5.0 mph 90 % 0.00 in
16:25 78.4 °F 74.8 °F 29.92 in Calm   4.0 mph 89 % 0.00 in
16:30 78.6 °F 75.0 °F 29.92 in ENE 1.0 mph 4.0 mph 89 % 0.00 in
16:35 78.8 °F 75.0 °F 29.91 in South 1.0 mph 4.0 mph 88 % 0.00 in
16:40 79.0 °F 75.2 °F 29.91 in ESE 5.0 mph 7.0 mph 88 % 0.00 in
16:45 79.0 °F 75.2 °F 29.91 in SSE 3.0 mph 7.0 mph 88 % 0.00 in
16:50 79.2 °F 75.4 °F 29.91 in SE 2.0 mph 8.0 mph 88 % 0.00 in
16:55 79.3 °F 75.2 °F 29.91 in SE 1.0 mph 8.0 mph 87 % 0.00 in
17:00 79.3 °F 75.2 °F 29.91 in SSW 3.0 mph 8.0 mph 87 % 0.00 in
17:05 79.3 °F 75.2 °F 29.91 in SSW 3.0 mph 5.0 mph 87 % 0.00 in
17:10 79.3 °F 75.6 °F 29.91 in SSW 2.0 mph 5.0 mph 88 % 0.00 in
17:15 79.2 °F 75.4 °F 29.91 in South 1.0 mph 5.0 mph 88 % 0.00 in
17:20 79.3 °F 75.6 °F 29.92 in ESE 1.0 mph 5.0 mph 88 % 0.00 in
17:25 79.5 °F 75.6 °F 29.92 in Calm   5.0 mph 88 % 0.00 in
17:30 79.7 °F 75.6 °F 29.91 in SE 1.0 mph 5.0 mph 87 % 0.00 in
17:35 79.7 °F 75.2 °F 29.91 in Calm   4.0 mph 86 % 0.00 in
17:40 79.7 °F 75.2 °F 29.91 in East 1.0 mph 4.0 mph 86 % 0.00 in
17:45 79.7 °F 75.2 °F 29.91 in SSE 2.0 mph 4.0 mph 86 % 0.00 in
17:50 79.7 °F 74.8 °F 29.91 in ESE 4.0 mph 6.0 mph 85 % 0.00 in
17:55 79.7 °F 75.2 °F 29.91 in Calm   6.0 mph 86 % 0.00 in
18:00 79.5 °F 75.0 °F 29.91 in SE 1.0 mph 6.0 mph 86 % 0.00 in
18:05 79.5 °F 75.0 °F 29.91 in Calm   4.0 mph 86 % 0.00 in
18:10 79.3 °F 75.2 °F 29.91 in SSE 1.0 mph 4.0 mph 87 % 0.00 in
18:15 79.3 °F 75.2 °F 29.91 in South 1.0 mph 4.0 mph 87 % 0.00 in
18:20 79.3 °F 75.2 °F 29.91 in SSE 1.0 mph 3.0 mph 87 % 0.00 in
18:25 79.3 °F 75.2 °F 29.91 in Calm   2.0 mph 87 % 0.00 in
18:30 79.3 °F 75.2 °F 29.91 in South 2.0 mph 2.0 mph 87 % 0.00 in
18:35 79.2 °F 75.0 °F 29.91 in Calm   2.0 mph 87 % 0.00 in
18:40 79.2 °F 75.4 °F 29.91 in South 1.0 mph 2.0 mph 88 % 0.00 in
18:45 79.0 °F 75.2 °F 29.91 in Calm   2.0 mph 88 % 0.00 in
18:50 78.8 °F 75.0 °F 29.90 in Calm   2.0 mph 88 % 0.00 in
18:55 78.8 °F 75.0 °F 29.90 in Calm   1.0 mph 88 % 0.00 in
19:00 79.0 °F 75.2 °F 29.90 in Calm   1.0 mph 88 % 0.00 in
19:05 79.0 °F 74.8 °F 29.90 in East 2.0 mph 2.0 mph 87 % 0.00 in
19:10 79.0 °F 74.8 °F 29.90 in Calm   2.0 mph 87 % 0.00 in
19:15 79.0 °F 74.8 °F 29.90 in ESE 1.0 mph 2.0 mph 87 % 0.00 in
19:16 79.0 °F 74.8 °F 29.90 in SE 1.0 mph 2.0 mph 87 % 0.00 in
19:21 78.8 °F 74.7 °F 29.89 in SSE 2.0 mph 2.0 mph 87 % 0.00 in
19:26 78.8 °F 74.7 °F 29.89 in SE 2.0 mph 3.0 mph 87 % 0.00 in
19:31 78.6 °F 74.5 °F 29.89 in Calm   3.0 mph 87 % 0.00 in
19:36 78.4 °F 74.7 °F 29.89 in Calm   3.0 mph 88 % 0.00 in
19:41 78.1 °F 74.5 °F 29.90 in Calm   3.0 mph 89 % 0.00 in
19:46 77.7 °F 74.5 °F 29.90 in SSW 1.0 mph 2.0 mph 90 % 0.00 in
19:51 77.5 °F 74.3 °F 29.90 in SE 1.0 mph 2.0 mph 90 % 0.00 in
19:56 77.4 °F 74.5 °F 29.90 in Calm   2.0 mph 91 % 0.00 in
20:02 77.4 °F 74.5 °F 29.90 in ESE 1.0 mph 2.0 mph 91 % 0.00 in
20:07 77.5 °F 74.7 °F 29.90 in Calm   3.0 mph 91 % 0.00 in
20:12 77.5 °F 74.7 °F 29.90 in Calm   3.0 mph 91 % 0.00 in
20:17 77.5 °F 74.7 °F 29.91 in Calm   3.0 mph 91 % 0.00 in
20:22 77.5 °F 74.7 °F 29.91 in Calm   2.0 mph 91 % 0.00 in
20:27 77.4 °F 74.5 °F 29.91 in Calm   2.0 mph 91 % 0.00 in
20:32 77.4 °F 74.5 °F 29.92 in Calm   2.0 mph 91 % 0.00 in
20:37 77.2 °F 74.7 °F 29.92 in East 3.0 mph 3.0 mph 92 % 0.00 in
20:42 77.2 °F 74.7 °F 29.92 in Calm   3.0 mph 92 % 0.00 in
20:47 77.2 °F 74.7 °F 29.92 in ESE 1.0 mph 3.0 mph 92 % 0.00 in
20:52 77.2 °F 74.7 °F 29.92 in ENE 1.0 mph 3.0 mph 92 % 0.00 in
20:57 77.0 °F 74.5 °F 29.92 in ESE 1.0 mph 3.0 mph 92 % 0.00 in
21:02 77.0 °F 74.5 °F 29.92 in Calm   3.0 mph 92 % 0.00 in
21:07 76.8 °F 74.3 °F 29.93 in ENE 1.0 mph 3.0 mph 92 % 0.00 in
21:12 76.8 °F 74.3 °F 29.93 in East 2.0 mph 3.0 mph 92 % 0.00 in
21:17 76.8 °F 74.7 °F 29.93 in Calm   2.0 mph 93 % 0.00 in
21:22 76.6 °F 74.5 °F 29.93 in East 1.0 mph 2.0 mph 93 % 0.00 in
21:27 76.6 °F 74.5 °F 29.93 in Calm   2.0 mph 93 % 0.00 in
21:32 76.5 °F 74.3 °F 29.93 in Calm   2.0 mph 93 % 0.00 in
21:37 76.5 °F 74.3 °F 29.93 in Calm   2.0 mph 93 % 0.00 in
21:42 76.5 °F 74.3 °F 29.93 in Calm   2.0 mph 93 % 0.00 in
21:47 76.5 °F 74.3 °F 29.93 in Calm   2.0 mph 93 % 0.00 in
21:52 76.5 °F 74.3 °F 29.93 in Calm   1.0 mph 93 % 0.00 in
21:57 76.5 °F 74.3 °F 29.93 in Calm   1.0 mph 93 % 0.00 in
22:02 76.3 °F 74.1 °F 29.93 in Calm   1.0 mph 93 % 0.00 in
22:07 76.3 °F 74.1 °F 29.93 in Calm   1.0 mph 93 % 0.00 in
22:12 76.3 °F 74.1 °F 29.94 in Calm   1.0 mph 93 % 0.00 in
22:17 76.3 °F 74.5 °F 29.94 in Calm   1.0 mph 94 % 0.00 in
22:22 76.1 °F 74.3 °F 29.94 in Calm   1.0 mph 94 % 0.00 in
22:27 75.9 °F 74.1 °F 29.93 in Calm   1.0 mph 94 % 0.00 in
22:32 75.9 °F 74.1 °F 29.93 in Calm   2.0 mph 94 % 0.00 in
22:37 75.9 °F 74.1 °F 29.94 in Calm   2.0 mph 94 % 0.00 in
22:42 75.9 °F 74.1 °F 29.94 in Calm   2.0 mph 94 % 0.00 in
22:47 75.9 °F 74.1 °F 29.94 in Calm   2.0 mph 94 % 0.00 in
22:52 75.9 °F 74.1 °F 29.94 in Calm   2.0 mph 94 % 0.00 in
22:57 75.9 °F 74.3 °F 29.94 in Calm   2.0 mph 95 % 0.00 in
23:02 75.9 °F 74.3 °F 29.94 in East 1.0 mph 2.0 mph 95 % 0.00 in
23:07 75.9 °F 74.3 °F 29.94 in ESE 1.0 mph 2.0 mph 95 % 0.00 in
23:12 75.9 °F 74.3 °F 29.94 in SSE 1.0 mph 3.0 mph 95 % 0.00 in
23:17 75.9 °F 74.3 °F 29.94 in Calm   3.0 mph 95 % 0.00 in
23:22 75.9 °F 74.3 °F 29.94 in Calm   3.0 mph 95 % 0.00 in
23:27 75.9 °F 74.3 °F 29.94 in Calm   2.0 mph 95 % 0.00 in
23:32 75.9 °F 74.3 °F 29.94 in Calm   2.0 mph 95 % 0.00 in
23:37 75.7 °F 74.5 °F 29.94 in Calm   1.0 mph 96 % 0.00 in
23:42 75.7 °F 74.5 °F 29.94 in ESE 2.0 mph 2.0 mph 96 % 0.00 in
23:47 75.7 °F 74.5 °F 29.94 in Calm   2.0 mph 96 % 0.00 in
23:52 75.7 °F 74.5 °F 29.94 in SE 1.0 mph 2.0 mph 96 % 0.00 in
23:57 75.7 °F 74.5 °F 29.94 in Calm   2.0 mph 96 % 0.00 in
Spring, Texas: Villages of Bridgestone
Compliments of Weather Underground - 2.75 mb

Script developed by  Jim McMurry - jmcmurry@mwt.net Adapted for the template by  Wim van der Kuil - Leuven-Template.eu

You find our weather info also at:

UK Metoffice

WeatherCloud

Weather Underground

Mid-South Weather Network

AWEKAS

Citizen Weather Observer Program (CWOP)

HAMweather, WeatherForYou, PWS Weather

Equipment we use:

Weather-station
Davis Vantage Vue

Weather-program
Meteohub

Weather-server
Debian 7.9 x86 (Guest)

Provider
DreamHost

Davis Vantage Vue

Meteohub

Debian 7.9 x86 (Guest)

DreamHost